createdAt,value
2023-04-25T00:00:02.514Z,6.4
2023-04-25T00:15:02.982Z,6.5
2023-04-25T00:30:02.394Z,6.5
2023-04-25T00:45:02.929Z,6.6
2023-04-25T01:00:02.289Z,6.3
2023-04-25T01:15:02.938Z,6.3
2023-04-25T01:30:02.152Z,6.2
2023-04-25T01:45:02.567Z,6.1
2023-04-25T02:00:03.011Z,6.3
2023-04-25T02:15:02.461Z,5.9
2023-04-25T02:30:02.962Z,5.9
2023-04-25T02:45:02.335Z,5.7
2023-04-25T03:00:02.950Z,5.6
2023-04-25T03:15:02.220Z,5.6
2023-04-25T03:30:02.703Z,5.4
2023-04-25T03:45:03.135Z,5.4
2023-04-25T04:00:02.557Z,5.5
2023-04-25T04:15:03.002Z,5.4
2023-04-25T04:30:02.422Z,5.2
2023-04-25T04:45:02.975Z,5.1
2023-04-25T05:00:02.365Z,5.2
2023-04-25T05:15:02.733Z,5.2
2023-04-25T05:30:03.166Z,5.2
2023-04-25T05:45:02.577Z,5.4
2023-04-25T06:00:03.108Z,5.5
2023-04-25T06:15:03.481Z,5.8
2023-04-25T06:30:02.985Z,6.1
2023-04-25T06:45:02.370Z,6.2
2023-04-25T07:00:02.999Z,6.5
2023-04-25T07:15:02.272Z,7.4
2023-04-25T07:30:02.715Z,7.8
2023-04-25T07:45:03.140Z,7.6
2023-04-25T08:00:02.590Z,8.7
2023-04-25T08:15:03.057Z,9.2
2023-04-25T08:30:02.454Z,10.6
2023-04-25T08:45:04.517Z,9.1
2023-04-25T09:00:02.369Z,8.1
2023-04-25T09:15:03.012Z,8.0
2023-04-25T09:30:02.211Z,8.5
2023-04-25T09:45:02.724Z,10.1
2023-04-25T10:00:03.080Z,9.0
2023-04-25T10:15:02.599Z,8.1
2023-04-25T10:30:03.032Z,9.1
2023-04-25T10:45:02.384Z,9.2
2023-04-25T11:00:02.992Z,8.3
2023-04-25T11:15:02.259Z,9.1
2023-04-25T11:30:02.685Z,9.8
2023-04-25T11:45:03.141Z,11.1
2023-04-25T12:00:02.578Z,10.2
2023-04-25T12:15:03.080Z,9.1
2023-04-25T12:30:02.495Z,8.2
2023-04-25T12:45:03.063Z,7.9
2023-04-25T13:00:02.380Z,9.4
2023-04-25T13:15:03.070Z,9.8
2023-04-25T13:30:02.300Z,10.7
2023-04-25T13:45:02.707Z,10.5
2023-04-25T14:00:03.134Z,10.3
2023-04-25T14:15:02.577Z,8.1
2023-04-25T14:30:03.134Z,6.7
2023-04-25T14:45:02.556Z,8.0
2023-04-25T15:00:03.085Z,9.2
2023-04-25T15:15:02.338Z,8.3
2023-04-25T15:30:02.764Z,6.5
2023-04-25T15:45:03.210Z,7.4
2023-04-25T16:00:02.604Z,8.0
2023-04-25T16:15:03.105Z,8.3
2023-04-25T16:30:02.517Z,7.9
2023-04-25T16:45:03.098Z,7.7
2023-04-25T17:00:02.372Z,7.8
2023-04-25T17:15:02.844Z,7.5
2023-04-25T17:30:02.264Z,7.4
2023-04-25T17:45:02.694Z,7.1
2023-04-25T18:00:05.244Z,7.0
2023-04-25T18:15:02.570Z,6.8
2023-04-25T18:30:03.133Z,6.5
2023-04-25T18:45:02.434Z,6.5
2023-04-25T19:00:03.038Z,6.3
2023-04-25T19:15:02.287Z,6.0
2023-04-25T19:30:02.742Z,5.8
2023-04-25T19:45:03.209Z,5.4
2023-04-25T20:00:02.599Z,5.1
2023-04-25T20:15:03.146Z,4.8
2023-04-25T20:30:02.508Z,4.4
2023-04-25T20:45:03.140Z,3.9
2023-04-25T21:00:02.390Z,3.6
2023-04-25T21:15:02.842Z,3.6
2023-04-25T21:30:02.267Z,3.5
2023-04-25T21:45:02.692Z,3.4
2023-04-25T22:00:03.165Z,3.1
2023-04-25T22:15:02.571Z,2.9
2023-04-25T22:30:03.151Z,2.5
2023-04-25T22:45:02.439Z,2.0
2023-04-25T23:00:03.072Z,1.9
2023-04-25T23:15:02.372Z,1.4
2023-04-25T23:30:02.809Z,1.3
2023-04-25T23:45:03.256Z,1.2
